Latest Coastal Weather Observations for Proserpine

IDQ60701

Issued at 9:55 am EST Sunday 23 November 2014 (issued every 10 minutes, with the page automatically refreshed every 10 minutes)

About coastal observations | Map of coastal stations | Coastal observations for QLD | Marine services | Other Formats
Station Details ID: 033247 Name: PROSERPINE AIRPORT Lat: -20.49 Lon: 148.56 Height: 19.7 m
Data from the previous 72 hours. | See also: Recent months at Proserpine
Date/Time
EST
Temp

°C
Wind Pressure Rain
since 9am
mm
Weather Cloud Vis
km
Sea
Height
m
Swell
Dir
 
Speed
knots
Gust
knots
hPa Trend Height
m
Period
s
Dir
23/09:30am 31.0 E 7 13 1016.0 - 0.0 - Partly cloudy 10 - - - -
23/09:00am 28.9 E 6 11 1016.0 - 0.0 Fine Mostly cloudy 25 - - - -
23/08:30am 29.1 ENE 5 9 1016.0 - 0.0 - Partly cloudy 10 - - - -
23/08:00am 28.0 ESE 6 9 1015.9 - 0.0 - Partly cloudy 10 - - - -
23/07:30am 27.3 ESE 6 11 1015.8 - 0.0 - - 10 - - - -
23/07:00am 26.1 S 6 8 1015.5 - 0.0 - - 10 - - - -
23/06:30am 23.6 SSW 4 5 1015.3 - 0.0 - - 10 - - - -
23/06:00am 21.7 SW 1 4 1014.9 - 0.0 - - 10 - - - -
23/05:30am 20.6 SSW 6 7 1014.6 - 0.0 - - 10 - - - -
23/05:00am 19.7 CALM 0 0 1014.2 - 0.0 - - 10 - - - -
23/04:30am 20.4 CALM 0 0 1013.9 - 0.0 - - 10 - - - -
23/04:00am 20.5 SSW 4 5 1013.7 - 0.0 - - 10 - - - -
23/03:30am 20.6 SSW 3 5 1013.6 - 0.0 - - 10 - - - -
23/03:00am 20.6 SSW 2 4 1013.6 - 0.0 - - 10 - - - -
23/02:30am 21.0 SSW 2 4 1013.6 - 0.0 - - 10 - - - -
23/02:00am 21.1 WSW 4 5 1013.9 - 0.0 - - 10 - - - -
23/01:30am 21.2 CALM 0 0 1014.1 - 0.0 - - 10 - - - -
23/01:00am 21.3 CALM 0 0 1014.4 - 0.0 - - 10 - - - -
23/12:30am 21.9 CALM 0 0 1014.6 - 0.0 - - 10 - - - -
23/12:00am 22.2 CALM 0 0 1014.9 - 0.0 - - 10 - - - -
 
Date/Time
EST
Temp

°C
Wind Pressure Rain
since 9am
mm
Weather Cloud Vis
km
Sea
Height
m
Swell
Dir
 
Speed
knots
Gust
knots
hPa Trend Height
m
Period
s
Dir
22/11:30pm 22.4 CALM 0 0 1015.1 - 0.0 - - 10 - - - -
22/11:00pm 22.6 E 3 4 1015.3 - 0.0 - - 10 - - - -
22/10:30pm 23.2 ESE 3 4 1015.5 - 0.0 - - 10 - - - -
22/10:00pm 23.0 E 4 5 1015.3 - 0.0 - - 10 - - - -
22/09:30pm 24.0 E 4 5 1014.9 - 0.0 - Partly cloudy 10 - - - -
22/09:00pm 24.8 E 4 5 1014.5 - 0.0 - Mostly cloudy 10 - - - -
22/08:30pm 25.0 NE 1 4 1014.3 - 0.0 - Partly cloudy 10 - - - -
22/08:00pm 25.4 CALM 0 0 1014.0 - 0.0 - - 10 - - - -
22/07:30pm 25.8 NE 4 6 1013.8 - 0.0 - Partly cloudy 10 - - - -
22/07:00pm 26.5 NE 3 7 1013.2 - 0.0 - Partly cloudy 10 - - - -
22/06:30pm 27.1 E 6 9 1012.7 - 0.0 - - 10 - - - -
22/06:00pm 28.1 NNE 5 8 1012.1 - 0.0 - Cloudy 10 - - - -
22/05:30pm 29.0 NNE 8 10 1011.9 - 0.0 - Partly cloudy 10 - - - -
22/05:00pm 30.0 NNE 8 11 1011.5 - 0.0 - Partly cloudy 10 - - - -
22/04:30pm 31.2 NE 7 10 1011.3 - 0.0 - Cloudy 10 - - - -
22/04:00pm 31.7 ENE 7 9 1011.3 - 0.0 - Partly cloudy 10 - - - -
22/03:30pm 32.5 SE 10 15 1011.1 - 0.0 - Partly cloudy 10 - - - -
22/03:00pm 33.7 ESE 9 13 1011.3 - 0.0 Haze Mostly cloudy 20 - - - -
22/02:30pm 33.4 E 9 15 1011.8 - 0.0 - - 10 - - - -
22/02:00pm 33.1 ESE 11 17 1012.2 - 0.0 - - 10 - - - -
22/01:30pm 32.3 SE 6 16 1012.8 - 0.0 - Partly cloudy 10 - - - -
22/01:00pm 32.5 SE 14 17 1012.8 - 0.0 - Partly cloudy 10 - - - -
22/12:30pm 32.5 E 12 15 1013.3 - 0.0 - Partly cloudy 10 - - - -
22/12:00pm 32.6 E 11 16 1013.6 - 0.0 - Mostly clear 10 - - - -
22/11:30am 32.7 E 7 18 1014.0 - 0.0 - Partly cloudy 10 - - - -
22/11:00am 31.5 E 6 12 1014.5 - 0.0 - - 10 - - - -
22/10:30am 31.1 ENE 8 13 1014.9 - 0.0 - Partly cloudy 10 - - - -
22/10:00am 30.4 W 4 7 1014.9 - 0.0 - Cloudy 10 - - - -
22/09:30am 32.0 NNE 6 11 1014.9 - 0.0 - Partly cloudy 10 - - - -
22/09:00am 30.5 NNE 6 12 1015.0 - 0.0 Fine Partly cloudy 25 - - - -
22/08:30am 28.9 NE 5 8 1015.4 - 0.0 - Partly cloudy 10 - - - -
22/08:00am 28.1 N 5 7 1015.4 - 0.0 - Partly cloudy 10 - - - -
22/07:30am 27.5 SE 3 6 1015.3 - 0.0 - Partly cloudy 10 - - - -
22/07:00am 25.7 S 4 5 1015.1 - 0.0 - - 10 - - - -
22/06:30am 23.1 S 3 4 1014.8 - 0.0 - Partly cloudy 10 - - - -
22/06:00am 21.6 CALM 0 0 1014.3 - 0.0 - - 10 - - - -
22/05:30am 20.2 CALM 0 3 1013.9 - 0.0 - - 10 - - - -
22/05:00am 20.1 CALM 0 0 1013.5 - 0.0 - - 10 - - - -
22/04:30am 20.0 CALM 0 0 1013.5 - 0.0 - - 10 - - - -
22/04:00am 20.7 SW 3 4 1013.3 - 0.0 - - 10 - - - -
22/03:30am 20.5 SSW 3 4 1013.1 - 0.0 - - 10 - - - -
22/03:00am 20.1 WSW 2 3 1012.8 - 0.0 - - 10 - - - -
22/02:30am 20.8 SSW 3 5 1012.8 - 0.0 - - 10 - - - -
22/02:00am 20.8 S 2 4 1012.9 - 0.0 - - 10 - - - -
22/01:30am 21.2 CALM 0 0 1013.3 - 0.0 - - 10 - - - -
22/01:00am 21.5 CALM 0 0 1013.7 - 0.0 - - 10 - - - -
22/12:30am 21.8 CALM 0 0 1013.9 - 0.0 - - 10 - - - -
22/12:00am 22.0 S 1 3 1014.2 - 0.0 - - 10 - - - -
 
Date/Time
EST
Temp

°C
Wind Pressure Rain
since 9am
mm
Weather Cloud Vis
km
Sea
Height
m
Swell
Dir
 
Speed
knots
Gust
knots
hPa Trend Height
m
Period
s
Dir
21/11:30pm 21.9 CALM 0 0 1014.5 - 0.0 - - 10 - - - -
21/11:00pm 22.2 CALM 0 0 1014.6 - 0.0 - - 10 - - - -
21/10:30pm 23.3 CALM 0 0 1014.8 - 0.0 - Partly cloudy 10 - - - -
21/10:00pm 23.6 CALM 0 0 1014.7 - 0.0 - - 10 - - - -
21/09:30pm 23.9 N 1 2 1014.6 - 0.0 - - 10 - - - -
21/09:00pm 24.7 N 3 4 1014.2 - 0.0 - - 10 - - - -
21/08:30pm 24.8 N 4 5 1013.8 - 0.0 - - 10 - - - -
21/08:00pm 25.1 N 4 6 1013.4 - 0.0 - - 10 - - - -
21/07:30pm 25.4 N 7 9 1013.2 - 0.0 - - 10 - - - -
21/07:00pm 25.8 N 6 8 1012.8 - 0.0 - - 10 - - - -
21/06:30pm 26.4 N 7 11 1012.3 - 0.0 - - 10 - - - -
21/06:00pm 27.6 NNE 9 12 1011.8 - 0.0 - - 10 - - - -
21/05:30pm 28.7 N 11 16 1011.6 - 0.0 - - 10 - - - -
21/05:00pm 30.1 NNE 10 14 1011.3 - 0.0 - - 10 - - - -
21/04:30pm 31.1 NNE 11 16 1011.1 - 0.0 - - 10 - - - -
21/04:00pm 32.4 N 10 16 1011.0 - 0.0 - - 10 - - - -
21/03:30pm 32.7 NNE 10 13 1011.0 - 0.0 - - 10 - - - -
21/03:00pm 33.2 ENE 6 13 1011.3 - 0.0 Haze Mostly clear 20 - - - -
21/02:30pm 33.0 E 11 19 1011.7 - 0.0 - - 10 - - - -
21/02:00pm 32.8 E 12 19 1012.1 - 0.0 - - 10 - - - -
21/01:30pm 32.8 E 11 18 1012.5 - 0.0 - - 10 - - - -
21/01:00pm 33.1 ESE 12 17 1012.7 - 0.0 - - 10 - - - -
21/12:30pm 33.3 ESE 12 19 1013.0 - 0.0 - - 10 - - - -
21/12:00pm 32.0 ESE 9 15 1013.6 - 0.0 - - 10 - - - -
21/11:30am 31.7 ESE 10 16 1014.1 - 0.0 - Partly cloudy 10 - - - -
21/11:00am 30.7 SE 11 17 1014.4 - 0.0 - Partly cloudy 10 - - - -
21/10:30am 31.7 E 7 15 1014.7 - 0.0 - Partly cloudy 10 - - - -
21/10:00am 31.4 NNE 5 11 1015.2 - 0.0 - Partly cloudy 10 - - - -
21/09:30am 29.9 NNW 6 10 1015.6 - 0.0 - - 10 - - - -
21/09:00am 29.5 NNE 5 10 1015.9 - 0.0 Fine Partly cloudy 25 - - - -
21/08:30am 27.2 N 7 13 1016.1 - 0.0 - Partly cloudy 10 - - - -
21/08:00am 27.4 NNE 2 6 1016.1 - 0.0 - Partly cloudy 10 - - - -
21/07:30am 27.2 SSW 2 4 1016.0 - 0.0 - - 10 - - - -
21/07:00am 25.5 SSW 4 6 1015.9 - 0.0 - - 10 - - - -
21/06:30am 23.5 SSW 5 6 1015.4 - 0.0 - - 10 - - - -
21/06:00am 20.8 SW 4 5 1014.9 - 0.0 - - 10 - - - -
21/05:30am 19.5 SW 4 4 1014.7 - 0.0 - Partly cloudy 10 - - - -
21/05:00am 19.1 SW 4 5 1014.4 - 0.0 - - 10 - - - -
21/04:30am 19.5 S 3 5 1014.0 - 0.0 - - 10 - - - -
21/04:00am 19.8 NW 2 3 1014.0 - 0.0 - - 10 - - - -
21/03:30am 19.8 W 3 4 1013.8 - 0.0 - - 10 - - - -
21/03:00am 20.1 S 4 6 1013.8 - 0.0 - - 10 - - - -
21/02:30am 20.6 S 4 4 1013.7 - 0.0 - - 10 - - - -
21/02:00am 20.3 CALM 0 3 1013.9 - 0.0 - - 10 - - - -
21/01:30am 20.7 ESE 4 5 1013.9 - 0.0 - - 10 - - - -
21/01:00am 21.0 S 3 4 1014.3 - 0.0 - - 10 - - - -
21/12:30am 21.2 S 4 5 1014.7 - 0.0 - Partly cloudy 10 - - - -
21/12:00am 21.6 CALM 0 0 1015.1 - 0.0 - Mostly clear 10 - - - -
 
Date/Time
EST
Temp

°C
Wind Pressure Rain
since 9am
mm
Weather Cloud Vis
km
Sea
Height
m
Swell
Dir
 
Speed
knots
Gust
knots
hPa Trend Height
m
Period
s
Dir
20/11:30pm 21.9 SSE 4 5 1015.4 - 0.0 - Partly cloudy 10 - - - -
20/11:00pm 22.0 SSE 5 5 1015.6 - 0.0 - - 10 - - - -
20/10:30pm 21.4 CALM 0 0 1015.7 - 0.0 - - 10 - - - -
20/10:00pm 21.9 CALM 0 3 1015.8 - 0.0 - - 10 - - - -
20/09:30pm 22.6 CALM 0 0 1015.8 - 0.0 - - 10 - - - -
20/09:00pm 23.4 CALM 0 0 1015.4 - 0.0 - - 10 - - - -
20/08:30pm 24.0 CALM 0 0 1015.3 - 0.0 - - 10 - - - -
20/08:00pm 24.5 N 4 5 1014.9 - 0.0 - - 10 - - - -
20/07:30pm 25.2 N 7 9 1014.4 - 0.0 - - 10 - - - -
20/07:00pm 25.7 N 8 12 1013.9 - 0.0 - - 10 - - - -
20/06:30pm 26.3 NNE 9 12 1013.3 - 0.0 - - 10 - - - -
20/06:00pm 27.7 NNE 9 12 1012.6 - 0.0 - - 10 - - - -
20/05:30pm 28.7 NNE 11 15 1012.3 - 0.0 - - 10 - - - -
20/05:00pm 29.7 NNE 11 17 1012.1 - 0.0 - - 10 - - - -
20/04:30pm 29.8 NNE 12 16 1011.7 - 0.0 - - 10 - - - -
20/04:00pm 31.3 NNE 13 18 1011.6 - 0.0 - - 10 - - - -
20/03:30pm 31.6 NNE 11 18 1011.6 - 0.0 - - 10 - - - -
20/03:00pm 32.8 NNE 9 15 1011.5 - 0.0 Haze Mostly clear 20 - - - -
20/02:30pm 32.5 NE 12 19 1011.8 - 0.0 - - 10 - - - -
20/02:00pm 33.8 SE 13 19 1011.9 - 0.0 - - 10 - - - -
20/01:30pm 33.6 E 12 17 1012.4 - 0.0 - - 10 - - - -
20/01:00pm 33.8 ESE 8 14 1013.0 - 0.0 - Partly cloudy 10 - - - -
20/12:30pm 33.3 SSE 10 15 1013.4 - 0.0 - Partly cloudy 10 - - - -
20/12:00pm 33.2 E 8 13 1014.2 - 0.0 - Mostly clear 10 - - - -
20/11:30am 31.7 ENE 7 11 1014.9 - 0.0 - Cloudy 10 - - - -
20/11:00am 32.2 SSE 5 8 1015.5 - 0.0 - Partly cloudy 10 - - - -
20/10:30am 32.0 NE 5 9 1015.9 - 0.0 - Partly cloudy 10 - - - -
20/10:00am 30.5 N 6 9 1016.1 - 0.0 - Partly cloudy 10 - - - -

Other Formats:

Comma delimited format used in spreadsheet applications
http://www.bom.gov.au/fwo/IDQ60701/IDQ60701.94365.axf

JavaScript Object Notation format (JSON) in row-major order
http://www.bom.gov.au/fwo/IDQ60701/IDQ60701.94365.json